Time,TemperatureF,DewpointF,PressureIn,WindDirection,WindDirectionDegrees,WindSpeedMPH,WindSpeedGustMPH,Humidity,HourlyPrecipIn,Conditions,Clouds,dailyrainin,SoftwareType,DateUTC
2013-05-25 00:04:00,45.5,32.8,29.77,NNE,29,0.0,0.0,61,0.00,,,0.00,WeatherCatV1.14B232,2013-05-25 06:04:00,
2013-05-25 00:09:00,45.1,33.7,29.78,NNE,29,0.0,0.0,64,0.00,,,0.00,WeatherCatV1.14B232,2013-05-25 06:09:00,
2013-05-25 00:14:00,44.9,32.3,29.77,NNE,32,0.0,0.0,61,0.00,,,0.00,WeatherCatV1.14B232,2013-05-25 06:14:00,
2013-05-25 00:19:00,44.8,31.4,29.78,NW,314,0.0,0.0,59,0.00,,,0.00,WeatherCatV1.14B232,2013-05-25 06:19:00,
2013-05-25 00:24:00,44.5,32.7,29.78,SW,232,0.0,0.0,63,0.00,,,0.00,WeatherCatV1.14B232,2013-05-25 06:24:00,
2013-05-25 00:29:00,44.3,31.3,29.78,ENE,70,0.0,0.0,60,0.00,,,0.00,WeatherCatV1.14B232,2013-05-25 06:29:00,
2013-05-25 00:34:00,43.9,33.7,29.78,South,170,1.0,2.0,67,0.00,,,0.00,WeatherCatV1.14B232,2013-05-25 06:34:00,
2013-05-25 00:39:00,43.6,32.2,29.78,ESE,110,0.0,1.0,64,0.00,,,0.00,WeatherCatV1.14B232,2013-05-25 06:39:00,
2013-05-25 00:44:00,43.4,32.4,29.78,WNW,295,0.0,0.0,65,0.00,,,0.00,WeatherCatV1.14B232,2013-05-25 06:44:00,
2013-05-25 00:49:00,43.1,32.1,29.78,WNW,297,0.0,0.0,65,0.00,,,0.00,WeatherCatV1.14B232,2013-05-25 06:49:00,
2013-05-25 00:54:00,42.8,30.7,29.78,WNW,295,0.0,0.0,62,0.00,,,0.00,WeatherCatV1.14B232,2013-05-25 06:54:00,
2013-05-25 00:59:00,42.6,31.3,29.78,WNW,295,0.0,0.0,64,0.00,,,0.00,WeatherCatV1.14B232,2013-05-25 06:59:00,
2013-05-25 01:04:00,42.4,31.9,29.78,SW,219,1.0,1.0,66,0.00,,,0.00,WeatherCatV1.14B232,2013-05-25 07:04:00,
2013-05-25 01:09:00,42.0,32.9,29.78,SSE,157,0.0,1.0,70,0.00,,,0.00,WeatherCatV1.14B232,2013-05-25 07:09:00,
2013-05-25 01:14:00,41.9,32.1,29.78,SW,228,1.0,1.0,68,0.00,,,0.00,WeatherCatV1.14B232,2013-05-25 07:14:00,
2013-05-25 01:19:00,41.5,33.5,29.79,East,98,0.0,1.0,73,0.00,,,0.00,WeatherCatV1.14B232,2013-05-25 07:19:00,
2013-05-25 01:24:00,41.3,31.2,29.79,East,98,0.0,0.0,67,0.00,,,0.00,WeatherCatV1.14B232,2013-05-25 07:24:00,
2013-05-25 01:29:00,41.2,31.5,29.79,East,98,0.0,0.0,68,0.00,,,0.00,WeatherCatV1.14B232,2013-05-25 07:29:00,
2013-05-25 01:34:00,41.0,32.7,29.79,East,98,0.0,0.0,72,0.00,,,0.00,WeatherCatV1.14B232,2013-05-25 07:34:00,
2013-05-25 01:39:00,40.7,32.0,29.79,SSE,164,0.0,0.0,71,0.00,,,0.00,WeatherCatV1.14B232,2013-05-25 07:39:00,
2013-05-25 01:44:00,40.4,31.8,29.79,ESE,123,0.0,0.0,71,0.00,,,0.00,WeatherCatV1.14B232,2013-05-25 07:44:00,
2013-05-25 01:49:00,40.2,31.9,29.79,South,188,0.0,0.0,72,0.00,,,0.00,WeatherCatV1.14B232,2013-05-25 07:49:00,
2013-05-25 01:54:00,40.0,32.1,29.80,South,188,1.0,1.0,73,0.00,,,0.00,WeatherCatV1.14B232,2013-05-25 07:54:00,
2013-05-25 01:59:00,39.7,32.1,29.79,SSE,164,1.0,1.0,74,0.00,,,0.00,WeatherCatV1.14B232,2013-05-25 07:59:00,
2013-05-25 02:04:00,39.5,31.6,29.79,East,101,1.0,1.0,73,0.00,,,0.00,WeatherCatV1.14B232,2013-05-25 08:04:00,
2013-05-25 02:09:00,39.6,31.0,29.80,SW,217,1.0,2.0,71,0.00,,,0.00,WeatherCatV1.14B232,2013-05-25 08:09:00,
2013-05-25 02:14:00,39.6,31.3,29.80,SSE,167,0.0,1.0,72,0.00,,,0.00,WeatherCatV1.14B232,2013-05-25 08:14:00,
2013-05-25 02:19:00,39.4,30.4,29.80,SSE,167,0.0,0.0,70,0.00,,,0.00,WeatherCatV1.14B232,2013-05-25 08:19:00,
2013-05-25 02:24:00,39.3,30.7,29.80,SSE,155,0.0,1.0,71,0.00,,,0.00,WeatherCatV1.14B232,2013-05-25 08:24:00,
2013-05-25 02:29:00,39.1,31.2,29.80,SSE,155,0.0,0.0,73,0.00,,,0.00,WeatherCatV1.14B232,2013-05-25 08:29:00,
2013-05-25 02:34:00,38.9,31.0,29.80,SSE,155,0.0,0.0,73,0.00,,,0.00,WeatherCatV1.14B232,2013-05-25 08:34:00,
2013-05-25 02:39:00,38.9,31.3,29.81,SSE,158,1.0,1.0,74,0.00,,,0.00,WeatherCatV1.14B232,2013-05-25 08:39:00,
2013-05-25 02:44:00,38.7,30.8,29.81,SW,224,1.0,1.0,73,0.00,,,0.00,WeatherCatV1.14B232,2013-05-25 08:44:00,
2013-05-25 02:49:00,38.5,29.9,29.81,SW,224,0.0,0.0,71,0.00,,,0.00,WeatherCatV1.14B232,2013-05-25 08:49:00,
2013-05-25 02:54:00,38.2,30.7,29.81,SW,224,0.0,0.0,74,0.00,,,0.00,WeatherCatV1.14B232,2013-05-25 08:54:00,
2013-05-25 02:59:00,38.0,30.1,29.81,ESE,104,1.0,1.0,73,0.00,,,0.00,WeatherCatV1.14B232,2013-05-25 08:59:00,
2013-05-25 03:04:00,38.1,31.2,29.81,ESE,105,0.0,0.0,76,0.00,,,0.00,WeatherCatV1.14B232,2013-05-25 09:04:00,
2013-05-25 03:09:00,37.7,31.2,29.81,WSW,242,1.0,1.0,77,0.00,,,0.00,WeatherCatV1.14B232,2013-05-25 09:09:00,
2013-05-25 03:14:00,37.5,30.0,29.81,SW,230,0.0,1.0,74,0.00,,,0.00,WeatherCatV1.14B232,2013-05-25 09:14:00,
2013-05-25 03:19:00,37.6,30.1,29.82,SSE,163,0.0,0.0,74,0.00,,,0.00,WeatherCatV1.14B232,2013-05-25 09:19:00,
2013-05-25 03:24:00,37.6,29.7,29.82,SSE,159,0.0,1.0,73,0.00,,,0.00,WeatherCatV1.14B232,2013-05-25 09:24:00,
2013-05-25 03:29:00,37.5,29.6,29.82,SSW,195,1.0,1.0,73,0.00,,,0.00,WeatherCatV1.14B232,2013-05-25 09:29:00,
2013-05-25 03:34:00,37.3,29.8,29.82,SSE,156,0.0,0.0,74,0.00,,,0.00,WeatherCatV1.14B232,2013-05-25 09:34:00,
2013-05-25 03:39:00,37.3,29.8,29.82,South,169,1.0,1.0,74,0.00,,,0.00,WeatherCatV1.14B232,2013-05-25 09:39:00,
2013-05-25 03:44:00,37.1,29.3,29.82,SSE,153,0.0,0.0,73,0.00,,,0.00,WeatherCatV1.14B232,2013-05-25 09:44:00,
2013-05-25 03:49:00,37.1,29.3,29.82,SSE,152,0.0,0.0,73,0.00,,,0.00,WeatherCatV1.14B232,2013-05-25 09:49:00,
2013-05-25 03:54:00,36.9,30.4,29.83,South,172,0.0,1.0,77,0.00,,,0.00,WeatherCatV1.14B232,2013-05-25 09:54:00,
2013-05-25 03:59:00,36.6,29.8,29.83,SSE,162,1.0,1.0,76,0.00,,,0.00,WeatherCatV1.14B232,2013-05-25 09:59:00,
2013-05-25 04:04:00,36.6,29.4,29.83,SSE,162,0.0,1.0,75,0.00,,,0.00,WeatherCatV1.14B232,2013-05-25 10:04:00,
2013-05-25 04:09:00,36.5,29.3,29.83,SSE,158,0.0,0.0,75,0.00,,,0.00,WeatherCatV1.14B232,2013-05-25 10:09:00,
2013-05-25 04:14:00,36.3,29.8,29.83,SSE,158,0.0,0.0,77,0.00,,,0.00,WeatherCatV1.14B232,2013-05-25 10:14:00,
2013-05-25 04:19:00,36.0,30.4,29.84,SSE,158,0.0,0.0,80,0.00,,,0.00,WeatherCatV1.14B232,2013-05-25 10:19:00,
2013-05-25 04:24:00,35.7,29.5,29.84,South,170,0.0,1.0,78,0.00,,,0.00,WeatherCatV1.14B232,2013-05-25 10:24:00,
2013-05-25 04:29:00,35.6,29.4,29.84,South,170,0.0,0.0,78,0.00,,,0.00,WeatherCatV1.14B232,2013-05-25 10:29:00,
2013-05-25 04:34:00,35.5,29.3,29.84,South,170,0.0,0.0,78,0.00,,,0.00,WeatherCatV1.14B232,2013-05-25 10:34:00,
2013-05-25 04:39:00,35.3,29.5,29.84,South,170,0.0,0.0,79,0.00,,,0.00,WeatherCatV1.14B232,2013-05-25 10:39:00,
2013-05-25 04:44:00,35.0,29.8,29.85,South,172,0.0,0.0,81,0.00,,,0.00,WeatherCatV1.14B232,2013-05-25 10:44:00,
2013-05-25 04:49:00,34.9,30.0,29.84,South,169,0.0,0.0,82,0.00,,,0.00,WeatherCatV1.14B232,2013-05-25 10:49:00,
2013-05-25 04:54:00,34.7,30.1,29.85,ESE,122,0.0,0.0,83,0.00,,,0.00,WeatherCatV1.14B232,2013-05-25 10:54:00,
2013-05-25 04:59:00,34.5,29.6,29.85,ESE,121,0.0,0.0,82,0.00,,,0.00,WeatherCatV1.14B232,2013-05-25 10:59:00,
2013-05-25 05:04:00,34.3,30.0,29.85,ESE,122,0.0,0.0,84,0.00,,,0.00,WeatherCatV1.14B232,2013-05-25 11:04:00,
2013-05-25 05:09:00,34.1,29.8,29.85,ESE,121,0.0,0.0,84,0.00,,,0.00,WeatherCatV1.14B232,2013-05-25 11:09:00,
2013-05-25 05:14:00,33.8,30.1,29.85,ESE,122,0.0,0.0,86,0.00,,,0.00,WeatherCatV1.14B232,2013-05-25 11:14:00,
2013-05-25 05:19:00,33.6,29.9,29.85,SE,124,0.0,3.0,86,0.00,,,0.00,WeatherCatV1.14B232,2013-05-25 11:19:00,
2013-05-25 05:24:00,33.6,29.9,29.85,SE,128,0.0,0.0,86,0.00,,,0.00,WeatherCatV1.14B232,2013-05-25 11:24:00,
2013-05-25 05:29:00,33.5,30.1,29.86,SE,128,0.0,0.0,87,0.00,,,0.00,WeatherCatV1.14B232,2013-05-25 11:29:00,
2013-05-25 05:34:00,33.3,29.6,29.86,SE,129,0.0,0.0,86,0.00,,,0.00,WeatherCatV1.14B232,2013-05-25 11:34:00,
2013-05-25 05:39:00,33.3,29.6,29.86,SW,224,0.0,2.0,86,0.00,,,0.00,WeatherCatV1.14B232,2013-05-25 11:39:00,
2013-05-25 05:44:00,33.4,29.7,29.86,SSW,204,0.0,0.0,86,0.00,,,0.00,WeatherCatV1.14B232,2013-05-25 11:44:00,
2013-05-25 05:49:00,33.2,29.2,29.86,SSW,203,0.0,0.0,85,0.00,,,0.00,WeatherCatV1.14B232,2013-05-25 11:49:00,
2013-05-25 05:54:00,33.1,29.4,29.86,East,101,1.0,1.0,86,0.00,,,0.00,WeatherCatV1.14B232,2013-05-25 11:54:00,
2013-05-25 05:59:00,33.2,29.5,29.86,SSE,160,0.0,0.0,86,0.00,,,0.00,WeatherCatV1.14B232,2013-05-25 11:59:00,
2013-05-25 06:04:00,33.2,29.2,29.87,SSE,167,0.0,1.0,85,0.00,,,0.00,WeatherCatV1.14B232,2013-05-25 12:04:00,
2013-05-25 06:09:00,33.2,29.8,29.87,ESE,122,0.0,1.0,87,0.00,,,0.00,WeatherCatV1.14B232,2013-05-25 12:09:00,
2013-05-25 06:14:00,33.1,29.4,29.87,SE,143,0.0,0.0,86,0.00,,,0.00,WeatherCatV1.14B232,2013-05-25 12:14:00,
2013-05-25 06:19:00,33.3,29.6,29.88,ESE,108,0.0,1.0,86,0.00,,,0.00,WeatherCatV1.14B232,2013-05-25 12:19:00,
2013-05-25 06:24:00,33.5,29.8,29.88,ESE,108,0.0,0.0,86,0.00,,,0.00,WeatherCatV1.14B232,2013-05-25 12:24:00,
2013-05-25 06:29:00,33.9,29.6,29.88,SSW,210,1.0,1.0,84,0.00,,,0.00,WeatherCatV1.14B232,2013-05-25 12:29:00,
2013-05-25 06:34:00,34.9,30.0,29.88,ESE,108,0.0,1.0,82,0.00,,,0.00,WeatherCatV1.14B232,2013-05-25 12:34:00,
2013-05-25 06:39:00,36.3,30.4,29.89,ESE,108,0.0,1.0,79,0.00,,,0.00,WeatherCatV1.14B232,2013-05-25 12:39:00,
2013-05-25 06:44:00,37.7,30.5,29.89,South,174,0.0,0.0,75,0.00,,,0.00,WeatherCatV1.14B232,2013-05-25 12:44:00,
2013-05-25 06:49:00,38.7,30.8,29.89,SSE,158,1.0,2.0,73,0.00,,,0.00,WeatherCatV1.14B232,2013-05-25 12:49:00,
2013-05-25 06:54:00,39.4,31.1,29.89,South,174,0.0,0.0,72,0.00,,,0.00,WeatherCatV1.14B232,2013-05-25 12:54:00,
2013-05-25 06:59:00,40.6,31.6,29.89,ESE,103,1.0,1.0,70,0.00,,,0.00,WeatherCatV1.14B232,2013-05-25 12:59:00,
2013-05-25 07:04:00,41.3,30.8,29.89,SSW,210,0.0,1.0,66,0.00,,,0.00,WeatherCatV1.14B232,2013-05-25 13:04:00,
2013-05-25 07:09:00,42.2,30.5,29.89,SSE,161,0.0,0.0,63,0.00,,,0.00,WeatherCatV1.14B232,2013-05-25 13:09:00,
2013-05-25 07:14:00,44.1,30.3,29.89,SSE,160,0.0,0.0,58,0.00,,,0.00,WeatherCatV1.14B232,2013-05-25 13:14:00,
2013-05-25 07:19:00,45.3,29.6,29.89,SSE,159,0.0,0.0,54,0.00,,,0.00,WeatherCatV1.14B232,2013-05-25 13:19:00,
2013-05-25 07:24:00,46.7,30.9,29.89,SE,125,0.0,0.0,54,0.00,,,0.00,WeatherCatV1.14B232,2013-05-25 13:24:00,
2013-05-25 07:29:00,47.6,30.9,29.88,South,180,0.0,0.0,52,0.00,,,0.00,WeatherCatV1.14B232,2013-05-25 13:29:00,
2013-05-25 07:34:00,48.5,29.2,29.88,South,183,0.0,1.0,47,0.00,,,0.00,WeatherCatV1.14B232,2013-05-25 13:34:00,
2013-05-25 07:39:00,49.3,29.4,29.88,South,169,0.0,0.0,46,0.00,,,0.00,WeatherCatV1.14B232,2013-05-25 13:39:00,
2013-05-25 07:44:00,50.2,30.2,29.88,SSE,150,0.0,0.0,46,0.00,,,0.00,WeatherCatV1.14B232,2013-05-25 13:44:00,
2013-05-25 07:49:00,50.9,29.8,29.88,North,359,2.0,2.0,44,0.00,,,0.00,WeatherCatV1.14B232,2013-05-25 13:49:00,
2013-05-25 07:54:00,51.2,28.9,29.88,NNW,338,1.0,2.0,42,0.00,,,0.00,WeatherCatV1.14B232,2013-05-25 13:54:00,
2013-05-25 07:59:00,50.9,28.0,29.88,North,5,2.0,2.0,41,0.00,,,0.00,WeatherCatV1.14B232,2013-05-25 13:59:00,
2013-05-25 08:04:00,50.8,29.1,29.88,NNW,343,0.0,1.0,43,0.00,,,0.00,WeatherCatV1.14B232,2013-05-25 14:04:00,
2013-05-25 08:09:00,51.0,28.7,29.87,NNW,338,0.0,4.0,42,0.00,,,0.00,WeatherCatV1.14B232,2013-05-25 14:09:00,
2013-05-25 08:14:00,51.6,28.1,29.87,NNE,24,1.0,2.0,40,0.00,,,0.00,WeatherCatV1.14B232,2013-05-25 14:14:00,
2013-05-25 08:19:00,52.0,29.0,29.87,NNW,338,0.0,3.0,41,0.00,,,0.00,WeatherCatV1.14B232,2013-05-25 14:19:00,
2013-05-25 08:24:00,53.2,28.9,29.87,ENE,68,0.0,2.0,39,0.00,,,0.00,WeatherCatV1.14B232,2013-05-25 14:24:00,
2013-05-25 08:29:00,54.2,29.2,29.87,North,9,1.0,1.0,38,0.00,,,0.00,WeatherCatV1.14B232,2013-05-25 14:29:00,
2013-05-25 08:34:00,54.1,29.1,29.87,NNW,330,0.0,0.0,38,0.00,,,0.00,WeatherCatV1.14B232,2013-05-25 14:34:00,
2013-05-25 08:39:00,55.4,30.9,29.86,East,84,1.0,2.0,39,0.00,,,0.00,WeatherCatV1.14B232,2013-05-25 14:39:00,
2013-05-25 08:44:00,55.7,29.8,29.86,NW,304,0.0,1.0,37,0.00,,,0.00,WeatherCatV1.14B232,2013-05-25 14:44:00,
2013-05-25 08:49:00,55.5,30.3,29.86,WSW,247,1.0,1.0,38,0.00,,,0.00,WeatherCatV1.14B232,2013-05-25 14:49:00,
2013-05-25 08:54:00,56.0,30.1,29.86,SE,140,1.0,1.0,37,0.00,,,0.00,WeatherCatV1.14B232,2013-05-25 14:54:00,
2013-05-25 08:59:00,56.9,30.2,29.85,South,173,1.0,1.0,36,0.00,,,0.00,WeatherCatV1.14B232,2013-05-25 14:59:00,
2013-05-25 09:04:00,58.3,30.8,29.85,NNE,25,0.0,1.0,35,0.00,,,0.00,WeatherCatV1.14B232,2013-05-25 15:04:00,
2013-05-25 09:09:00,59.7,29.0,29.85,East,100,1.0,1.0,31,0.00,,,0.00,WeatherCatV1.14B232,2013-05-25 15:09:00,
2013-05-25 09:14:00,59.9,29.2,29.85,SSW,204,0.0,1.0,31,0.00,,,0.00,WeatherCatV1.14B232,2013-05-25 15:14:00,
2013-05-25 09:19:00,60.5,30.5,29.84,NNW,342,3.0,3.0,32,0.00,,,0.00,WeatherCatV1.14B232,2013-05-25 15:19:00,
2013-05-25 09:24:00,60.1,30.1,29.84,North,4,3.0,3.0,32,0.00,,,0.00,WeatherCatV1.14B232,2013-05-25 15:24:00,
2013-05-25 09:29:00,60.3,29.5,29.84,North,351,2.0,3.0,31,0.00,,,0.00,WeatherCatV1.14B232,2013-05-25 15:29:00,
2013-05-25 09:34:00,61.3,29.6,29.84,NW,307,0.0,1.0,30,0.00,,,0.00,WeatherCatV1.14B232,2013-05-25 15:34:00,
2013-05-25 09:39:00,62.3,30.5,29.84,NE,37,0.0,1.0,30,0.00,,,0.00,WeatherCatV1.14B232,2013-05-25 15:39:00,
2013-05-25 09:44:00,63.0,30.2,29.84,ESE,120,1.0,2.0,29,0.00,,,0.00,WeatherCatV1.14B232,2013-05-25 15:44:00,
2013-05-25 09:49:00,63.3,30.5,29.83,WNW,287,0.0,2.0,29,0.00,,,0.00,WeatherCatV1.14B232,2013-05-25 15:49:00,
2013-05-25 09:54:00,64.1,28.5,29.83,SW,234,0.0,1.0,26,0.00,,,0.00,WeatherCatV1.14B232,2013-05-25 15:54:00,
2013-05-25 09:59:00,64.9,30.1,29.83,ENE,70,0.0,1.0,27,0.00,,,0.00,WeatherCatV1.14B232,2013-05-25 15:59:00,
2013-05-25 10:04:00,66.1,31.1,29.83,North,4,4.0,4.0,27,0.00,,,0.00,WeatherCatV1.14B232,2013-05-25 16:04:00,
2013-05-25 10:09:00,65.8,31.8,29.83,NNE,26,0.0,3.0,28,0.00,,,0.00,WeatherCatV1.14B232,2013-05-25 16:09:00,
2013-05-25 10:14:00,65.8,31.8,29.82,NE,38,1.0,7.0,28,0.00,,,0.00,WeatherCatV1.14B232,2013-05-25 16:14:00,
2013-05-25 10:19:00,67.2,32.1,29.82,WNW,291,2.0,3.0,27,0.00,,,0.00,WeatherCatV1.14B232,2013-05-25 16:19:00,
2013-05-25 10:24:00,67.7,31.6,29.82,West,280,1.0,2.0,26,0.00,,,0.00,WeatherCatV1.14B232,2013-05-25 16:24:00,
2013-05-25 10:29:00,68.5,30.3,29.82,SSE,165,3.0,7.0,24,0.00,,,0.00,WeatherCatV1.14B232,2013-05-25 16:29:00,
2013-05-25 10:34:00,69.1,21.0,29.82,South,181,3.0,8.0,16,0.00,,,0.00,WeatherCatV1.14B232,2013-05-25 16:34:00,
2013-05-25 10:39:00,70.2,20.4,29.82,ESE,116,6.0,8.0,15,0.00,,,0.00,WeatherCatV1.14B232,2013-05-25 16:39:00,
2013-05-25 10:44:00,70.6,17.4,29.82,SSE,149,8.0,12.0,13,0.00,,,0.00,WeatherCatV1.14B232,2013-05-25 16:44:00,
2013-05-25 10:49:00,70.5,17.3,29.82,WSW,246,6.0,9.0,13,0.00,,,0.00,WeatherCatV1.14B232,2013-05-25 16:49:00,
2013-05-25 10:54:00,70.3,17.1,29.82,SSE,153,5.0,13.0,13,0.00,,,0.00,WeatherCatV1.14B232,2013-05-25 16:54:00,
2013-05-25 10:59:00,70.3,17.1,29.82,WSW,253,4.0,10.0,13,0.00,,,0.00,WeatherCatV1.14B232,2013-05-25 16:59:00,
2013-05-25 11:04:00,70.6,17.4,29.82,SSW,198,7.0,8.0,13,0.00,,,0.00,WeatherCatV1.14B232,2013-05-25 17:04:00,
2013-05-25 11:09:00,71.2,21.2,29.83,SE,136,1.0,4.0,15,0.00,,,0.00,WeatherCatV1.14B232,2013-05-25 17:09:00,
2013-05-25 11:14:00,71.8,21.7,29.82,West,262,1.0,2.0,15,0.00,,,0.00,WeatherCatV1.14B232,2013-05-25 17:14:00,
2013-05-25 11:19:00,72.8,17.2,29.82,West,277,5.0,10.0,12,0.00,,,0.00,WeatherCatV1.14B232,2013-05-25 17:19:00,
2013-05-25 11:24:00,73.4,19.6,29.82,SSE,159,3.0,4.0,13,0.00,,,0.00,WeatherCatV1.14B232,2013-05-25 17:24:00,
2013-05-25 11:29:00,74.0,16.2,29.82,SSW,200,4.0,13.0,11,0.00,,,0.00,WeatherCatV1.14B232,2013-05-25 17:29:00,
2013-05-25 11:34:00,73.5,15.8,29.82,NNE,32,3.0,18.0,11,0.00,,,0.00,WeatherCatV1.14B232,2013-05-25 17:34:00,
2013-05-25 11:39:00,72.8,15.2,29.82,SSE,148,5.0,11.0,11,0.00,,,0.00,WeatherCatV1.14B232,2013-05-25 17:39:00,
2013-05-25 11:44:00,72.4,14.9,29.82,South,179,3.0,13.0,11,0.00,,,0.00,WeatherCatV1.14B232,2013-05-25 17:44:00,
2013-05-25 11:49:00,72.3,16.9,29.82,West,271,3.0,13.0,12,0.00,,,0.00,WeatherCatV1.14B232,2013-05-25 17:49:00,
2013-05-25 11:54:00,72.2,16.8,29.82,SW,228,5.0,18.0,12,0.00,,,0.00,WeatherCatV1.14B232,2013-05-25 17:54:00,
2013-05-25 11:59:00,72.3,14.9,29.82,WSW,238,10.0,14.0,11,0.00,,,0.00,WeatherCatV1.14B232,2013-05-25 17:59:00,
2013-05-25 12:04:00,72.6,18.9,29.82,South,181,6.0,15.0,13,0.00,,,0.00,WeatherCatV1.14B232,2013-05-25 18:04:00,
2013-05-25 12:09:00,73.2,17.6,29.82,South,169,9.0,17.0,12,0.00,,,0.00,WeatherCatV1.14B232,2013-05-25 18:09:00,
2013-05-25 12:14:00,73.2,13.4,29.82,West,261,4.0,10.0,10,0.00,,,0.00,WeatherCatV1.14B232,2013-05-25 18:14:00,
2013-05-25 12:19:00,73.3,17.6,29.82,SSW,199,6.0,17.0,12,0.00,,,0.00,WeatherCatV1.14B232,2013-05-25 18:19:00,
2013-05-25 12:24:00,73.3,15.6,29.82,ESE,108,3.0,12.0,11,0.00,,,0.00,WeatherCatV1.14B232,2013-05-25 18:24:00,
2013-05-25 12:29:00,73.9,16.1,29.81,SSE,149,12.0,18.0,11,0.00,,,0.00,WeatherCatV1.14B232,2013-05-25 18:29:00,
2013-05-25 12:34:00,74.5,14.4,29.81,SW,228,7.0,19.0,10,0.00,,,0.00,WeatherCatV1.14B232,2013-05-25 18:34:00,
2013-05-25 12:39:00,74.4,14.3,29.81,West,271,4.0,21.0,10,0.00,,,0.00,WeatherCatV1.14B232,2013-05-25 18:39:00,
2013-05-25 12:44:00,74.1,14.1,29.81,WSW,257,7.0,14.0,10,0.00,,,0.00,WeatherCatV1.14B232,2013-05-25 18:44:00,
2013-05-25 12:49:00,74.4,16.5,29.81,SW,232,7.0,12.0,11,0.00,,,0.00,WeatherCatV1.14B232,2013-05-25 18:49:00,
2013-05-25 12:54:00,74.7,16.7,29.81,South,170,5.0,10.0,11,0.00,,,0.00,WeatherCatV1.14B232,2013-05-25 18:54:00,
2013-05-25 12:59:00,75.4,19.3,29.80,SW,231,7.0,10.0,12,0.00,,,0.00,WeatherCatV1.14B232,2013-05-25 18:59:00,
2013-05-25 13:04:00,76.1,17.8,29.80,SW,222,8.0,15.0,11,0.00,,,0.00,WeatherCatV1.14B232,2013-05-25 19:04:00,
2013-05-25 13:09:00,76.1,15.6,29.80,SSW,208,11.0,11.0,10,0.00,,,0.00,WeatherCatV1.14B232,2013-05-25 19:09:00,
2013-05-25 13:14:00,76.2,17.9,29.80,SW,233,9.0,10.0,11,0.00,,,0.00,WeatherCatV1.14B232,2013-05-25 19:14:00,
2013-05-25 13:19:00,76.4,18.0,29.80,SW,226,6.0,15.0,11,0.00,,,0.00,WeatherCatV1.14B232,2013-05-25 19:19:00,
2013-05-25 13:24:00,76.4,15.8,29.80,WSW,239,13.0,16.0,10,0.00,,,0.00,WeatherCatV1.14B232,2013-05-25 19:24:00,
2013-05-25 13:29:00,76.0,15.5,29.79,WSW,257,11.0,18.0,10,0.00,,,0.00,WeatherCatV1.14B232,2013-05-25 19:29:00,
2013-05-25 13:34:00,76.2,15.7,29.79,East,91,15.0,15.0,10,0.00,,,0.00,WeatherCatV1.14B232,2013-05-25 19:34:00,
2013-05-25 13:39:00,76.3,15.7,29.79,WSW,239,10.0,15.0,10,0.00,,,0.00,WeatherCatV1.14B232,2013-05-25 19:39:00,
2013-05-25 13:44:00,76.3,20.0,29.78,SW,229,5.0,16.0,12,0.00,,,0.00,WeatherCatV1.14B232,2013-05-25 19:44:00,
2013-05-25 13:49:00,76.5,18.1,29.79,South,187,6.0,11.0,11,0.00,,,0.00,WeatherCatV1.14B232,2013-05-25 19:49:00,
2013-05-25 13:54:00,77.1,18.5,29.78,SSW,201,8.0,9.0,11,0.00,,,0.00,WeatherCatV1.14B232,2013-05-25 19:54:00,
2013-05-25 13:59:00,77.4,16.6,29.79,WSW,246,8.0,17.0,10,0.00,,,0.00,WeatherCatV1.14B232,2013-05-25 19:59:00,
2013-05-25 14:04:00,77.3,18.7,29.78,SSW,211,7.0,11.0,11,0.00,,,0.00,WeatherCatV1.14B232,2013-05-25 20:04:00,
2013-05-25 14:09:00,76.9,16.2,29.78,SSW,203,15.0,20.0,10,0.00,,,0.00,WeatherCatV1.14B232,2013-05-25 20:09:00,
2013-05-25 14:14:00,77.2,18.6,29.78,SE,127,8.0,10.0,11,0.00,,,0.00,WeatherCatV1.14B232,2013-05-25 20:14:00,
2013-05-25 14:19:00,77.5,18.9,29.77,West,267,5.0,16.0,11,0.00,,,0.00,WeatherCatV1.14B232,2013-05-25 20:19:00,
2013-05-25 14:24:00,77.8,16.9,29.78,West,262,3.0,10.0,10,0.00,,,0.00,WeatherCatV1.14B232,2013-05-25 20:24:00,
2013-05-25 14:29:00,77.8,21.1,29.77,SW,225,5.0,11.0,12,0.00,,,0.00,WeatherCatV1.14B232,2013-05-25 20:29:00,
2013-05-25 14:34:00,78.0,14.6,29.77,South,172,5.0,11.0,9,0.00,,,0.00,WeatherCatV1.14B232,2013-05-25 20:34:00,
2013-05-25 14:39:00,78.2,19.4,29.77,West,259,11.0,18.0,11,0.00,,,0.00,WeatherCatV1.14B232,2013-05-25 20:39:00,
2013-05-25 14:44:00,77.9,17.0,29.77,East,84,2.0,10.0,10,0.00,,,0.00,WeatherCatV1.14B232,2013-05-25 20:44:00,
2013-05-25 14:49:00,78.3,14.8,29.77,SW,224,4.0,14.0,9,0.00,,,0.00,WeatherCatV1.14B232,2013-05-25 20:49:00,
2013-05-25 14:54:00,78.4,23.5,29.77,South,187,9.0,10.0,13,0.00,,,0.00,WeatherCatV1.14B232,2013-05-25 20:54:00,
2013-05-25 14:59:00,78.3,14.8,29.76,South,170,2.0,9.0,9,0.00,,,0.00,WeatherCatV1.14B232,2013-05-25 20:59:00,
2013-05-25 15:04:00,78.6,17.5,29.76,SSW,208,9.0,14.0,10,0.00,,,0.00,WeatherCatV1.14B232,2013-05-25 21:04:00,
2013-05-25 15:09:00,78.9,17.7,29.76,NE,46,1.0,5.0,10,0.00,,,0.00,WeatherCatV1.14B232,2013-05-25 21:09:00,
2013-05-25 15:14:00,79.6,18.2,29.76,SW,217,6.0,11.0,10,0.00,,,0.00,WeatherCatV1.14B232,2013-05-25 21:14:00,
2013-05-25 15:19:00,79.1,15.4,29.76,SSE,149,2.0,5.0,9,0.00,,,0.00,WeatherCatV1.14B232,2013-05-25 21:19:00,
2013-05-25 15:24:00,79.3,12.9,29.76,ENE,69,2.0,13.0,8,0.00,,,0.00,WeatherCatV1.14B232,2013-05-25 21:24:00,
2013-05-25 15:29:00,79.7,13.2,29.76,West,263,1.0,11.0,8,0.00,,,0.00,WeatherCatV1.14B232,2013-05-25 21:29:00,
2013-05-25 15:34:00,80.2,16.3,29.75,NW,311,2.0,6.0,9,0.00,,,0.00,WeatherCatV1.14B232,2013-05-25 21:34:00,
2013-05-25 15:39:00,79.7,22.6,29.75,NNW,336,3.0,14.0,12,0.00,,,0.00,WeatherCatV1.14B232,2013-05-25 21:39:00,
2013-05-25 15:44:00,78.7,15.1,29.76,ENE,60,1.0,10.0,9,0.00,,,0.00,WeatherCatV1.14B232,2013-05-25 21:44:00,
2013-05-25 15:49:00,79.0,22.1,29.75,NNE,14,2.0,3.0,12,0.00,,,0.00,WeatherCatV1.14B232,2013-05-25 21:49:00,
2013-05-25 15:54:00,79.3,20.2,29.74,SSE,147,5.0,5.0,11,0.00,,,0.00,WeatherCatV1.14B232,2013-05-25 21:54:00,
2013-05-25 15:59:00,79.5,18.2,29.75,WSW,255,5.0,9.0,10,0.00,,,0.00,WeatherCatV1.14B232,2013-05-25 21:59:00,
2013-05-25 16:05:00,78.8,15.2,29.75,SE,133,2.0,11.0,9,0.00,,,0.00,WeatherCatV1.14B232,2013-05-25 22:05:00,
2013-05-25 16:10:00,79.1,15.4,29.74,SSE,148,2.0,9.0,9,0.00,,,0.00,WeatherCatV1.14B232,2013-05-25 22:10:00,
2013-05-25 16:15:00,79.6,20.5,29.74,South,179,5.0,8.0,11,0.00,,,0.00,WeatherCatV1.14B232,2013-05-25 22:15:00,
2013-05-25 16:20:00,79.8,20.6,29.74,South,188,3.0,6.0,11,0.00,,,0.00,WeatherCatV1.14B232,2013-05-25 22:20:00,
2013-05-25 16:25:00,80.0,22.8,29.74,SE,124,4.0,4.0,12,0.00,,,0.00,WeatherCatV1.14B232,2013-05-25 22:25:00,
2013-05-25 16:30:00,79.6,20.5,29.74,SW,231,5.0,11.0,11,0.00,,,0.00,WeatherCatV1.14B232,2013-05-25 22:30:00,
2013-05-25 16:35:00,79.2,20.2,29.74,South,184,4.0,8.0,11,0.00,,,0.00,WeatherCatV1.14B232,2013-05-25 22:35:00,
2013-05-25 16:40:00,79.2,15.5,29.74,SSE,157,3.0,4.0,9,0.00,,,0.00,WeatherCatV1.14B232,2013-05-25 22:40:00,
2013-05-25 16:45:00,79.4,18.1,29.73,ENE,78,2.0,2.0,10,0.00,,,0.00,WeatherCatV1.14B232,2013-05-25 22:45:00,
2013-05-25 16:50:00,79.4,18.1,29.73,SSW,204,2.0,11.0,10,0.00,,,0.00,WeatherCatV1.14B232,2013-05-25 22:50:00,
2013-05-25 16:55:00,79.0,17.8,29.72,SW,226,4.0,12.0,10,0.00,,,0.00,WeatherCatV1.14B232,2013-05-25 22:55:00,
2013-05-25 17:00:00,78.7,19.8,29.73,WSW,252,2.0,5.0,11,0.00,,,0.00,WeatherCatV1.14B232,2013-05-25 23:00:00,
2013-05-25 17:05:00,78.5,17.4,29.72,WSW,250,6.0,6.0,10,0.00,,,0.00,WeatherCatV1.14B232,2013-05-25 23:05:00,
2013-05-25 17:10:00,78.8,23.8,29.72,ESE,117,8.0,10.0,13,0.00,,,0.00,WeatherCatV1.14B232,2013-05-25 23:10:00,
2013-05-25 17:15:00,78.6,19.7,29.72,SSE,150,6.0,11.0,11,0.00,,,0.00,WeatherCatV1.14B232,2013-05-25 23:15:00,
2013-05-25 17:20:00,78.4,21.6,29.72,SW,228,5.0,5.0,12,0.00,,,0.00,WeatherCatV1.14B232,2013-05-25 23:20:00,
2013-05-25 17:25:00,78.3,21.5,29.72,SW,226,4.0,11.0,12,0.00,,,0.00,WeatherCatV1.14B232,2013-05-25 23:25:00,
2013-05-25 17:30:00,78.2,19.4,29.72,SSE,155,11.0,17.0,11,0.00,,,0.00,WeatherCatV1.14B232,2013-05-25 23:30:00,
2013-05-25 17:35:00,78.1,19.3,29.72,SSW,200,9.0,11.0,11,0.00,,,0.00,WeatherCatV1.14B232,2013-05-25 23:35:00,
2013-05-25 17:40:00,78.0,19.2,29.72,SSE,164,5.0,10.0,11,0.00,,,0.00,WeatherCatV1.14B232,2013-05-25 23:40:00,
2013-05-25 17:45:00,78.0,19.2,29.71,SW,220,3.0,5.0,11,0.00,,,0.00,WeatherCatV1.14B232,2013-05-25 23:45:00,
2013-05-25 17:50:00,77.8,19.1,29.71,SSE,149,0.0,4.0,11,0.00,,,0.00,WeatherCatV1.14B232,2013-05-25 23:50:00,
2013-05-25 17:55:00,77.7,16.8,29.72,WSW,249,9.0,12.0,10,0.00,,,0.00,WeatherCatV1.14B232,2013-05-25 23:55:00,
2013-05-25 18:00:00,77.4,20.8,29.72,West,259,3.0,3.0,12,0.00,,,0.00,WeatherCatV1.14B232,2013-05-26 00:00:00,
2013-05-25 18:05:00,76.9,16.2,29.72,SW,214,3.0,9.0,10,0.00,,,0.00,WeatherCatV1.14B232,2013-05-26 00:05:00,
2013-05-25 18:10:00,76.7,16.0,29.71,WSW,238,0.0,2.0,10,0.00,,,0.00,WeatherCatV1.14B232,2013-05-26 00:10:00,
2013-05-25 18:15:00,76.7,18.2,29.72,SW,226,6.0,8.0,11,0.00,,,0.00,WeatherCatV1.14B232,2013-05-26 00:15:00,
2013-05-25 18:20:00,76.6,16.0,29.72,SW,226,7.0,8.0,10,0.00,,,0.00,WeatherCatV1.14B232,2013-05-26 00:20:00,
2013-05-25 18:25:00,76.5,15.9,29.72,West,272,1.0,7.0,10,0.00,,,0.00,WeatherCatV1.14B232,2013-05-26 00:25:00,
2013-05-25 18:30:00,76.4,18.0,29.72,WNW,285,1.0,5.0,11,0.00,,,0.00,WeatherCatV1.14B232,2013-05-26 00:30:00,
2013-05-25 18:35:00,76.3,17.9,29.72,NNE,21,1.0,5.0,11,0.00,,,0.00,WeatherCatV1.14B232,2013-05-26 00:35:00,
2013-05-25 18:40:00,76.2,15.7,29.71,NE,44,3.0,3.0,10,0.00,,,0.00,WeatherCatV1.14B232,2013-05-26 00:40:00,
2013-05-25 18:45:00,76.2,19.9,29.71,NE,34,1.0,2.0,12,0.00,,,0.00,WeatherCatV1.14B232,2013-05-26 00:45:00,
2013-05-25 18:50:00,76.1,15.6,29.71,West,277,0.0,5.0,10,0.00,,,0.00,WeatherCatV1.14B232,2013-05-26 00:50:00,
2013-05-25 18:55:00,75.9,21.5,29.71,WSW,246,1.0,6.0,13,0.00,,,0.00,WeatherCatV1.14B232,2013-05-26 00:55:00,
2013-05-25 19:00:00,75.6,17.4,29.71,WSW,257,1.0,3.0,11,0.00,,,0.00,WeatherCatV1.14B232,2013-05-26 01:00:00,
2013-05-25 19:05:00,75.2,17.1,29.71,SSE,165,3.0,4.0,11,0.00,,,0.00,WeatherCatV1.14B232,2013-05-26 01:05:00,
2013-05-25 19:10:00,75.1,14.8,29.71,SE,146,1.0,5.0,10,0.00,,,0.00,WeatherCatV1.14B232,2013-05-26 01:10:00,
2013-05-25 19:15:00,75.2,17.1,29.71,South,181,5.0,8.0,11,0.00,,,0.00,WeatherCatV1.14B232,2013-05-26 01:15:00,
2013-05-25 19:20:00,75.0,16.9,29.71,SW,236,1.0,2.0,11,0.00,,,0.00,WeatherCatV1.14B232,2013-05-26 01:20:00,
2013-05-25 19:25:00,74.6,18.6,29.71,West,260,3.0,3.0,12,0.00,,,0.00,WeatherCatV1.14B232,2013-05-26 01:25:00,
2013-05-25 19:30:00,74.2,18.3,29.72,West,262,0.0,3.0,12,0.00,,,0.00,WeatherCatV1.14B232,2013-05-26 01:30:00,
2013-05-25 19:35:00,73.9,16.1,29.72,SW,227,1.0,6.0,11,0.00,,,0.00,WeatherCatV1.14B232,2013-05-26 01:35:00,
2013-05-25 19:40:00,73.7,19.8,29.72,West,265,0.0,2.0,13,0.00,,,0.00,WeatherCatV1.14B232,2013-05-26 01:40:00,
2013-05-25 19:45:00,72.9,19.2,29.72,WSW,257,3.0,3.0,13,0.00,,,0.00,WeatherCatV1.14B232,2013-05-26 01:45:00,
2013-05-25 19:50:00,73.0,17.4,29.72,WSW,248,2.0,4.0,12,0.00,,,0.00,WeatherCatV1.14B232,2013-05-26 01:50:00,
2013-05-25 19:55:00,73.2,17.6,29.72,West,262,2.0,5.0,12,0.00,,,0.00,WeatherCatV1.14B232,2013-05-26 01:55:00,
2013-05-25 20:00:00,73.2,17.6,29.72,WSW,255,1.0,3.0,12,0.00,,,0.00,WeatherCatV1.14B232,2013-05-26 02:00:00,
2013-05-25 20:05:00,72.2,18.6,29.72,WSW,242,2.0,4.0,13,0.00,,,0.00,WeatherCatV1.14B232,2013-05-26 02:05:00,
2013-05-25 20:10:00,71.7,20.0,29.72,West,262,3.0,4.0,14,0.00,,,0.00,WeatherCatV1.14B232,2013-05-26 02:10:00,
2013-05-25 20:15:00,71.7,18.2,29.73,WSW,246,3.0,7.0,13,0.00,,,0.00,WeatherCatV1.14B232,2013-05-26 02:15:00,
2013-05-25 20:20:00,71.5,19.8,29.73,SW,235,3.0,5.0,14,0.00,,,0.00,WeatherCatV1.14B232,2013-05-26 02:20:00,
2013-05-25 20:25:00,70.9,19.3,29.73,WSW,249,3.0,5.0,14,0.00,,,0.00,WeatherCatV1.14B232,2013-05-26 02:25:00,
2013-05-25 20:30:00,70.4,20.5,29.73,WSW,257,2.0,3.0,15,0.00,,,0.00,WeatherCatV1.14B232,2013-05-26 02:30:00,
2013-05-25 20:35:00,69.7,24.3,29.73,ESE,110,1.0,2.0,18,0.00,,,0.00,WeatherCatV1.14B232,2013-05-26 02:35:00,
2013-05-25 20:40:00,68.1,26.7,29.73,SSE,155,0.0,0.0,21,0.00,,,0.00,WeatherCatV1.14B232,2013-05-26 02:40:00,
2013-05-25 20:45:00,66.5,29.6,29.73,SW,214,2.0,2.0,25,0.00,,,0.00,WeatherCatV1.14B232,2013-05-26 02:45:00,
2013-05-25 20:50:00,64.9,31.9,29.73,SSE,150,0.0,2.0,29,0.00,,,0.00,WeatherCatV1.14B232,2013-05-26 02:50:00,
2013-05-25 20:55:00,63.4,33.0,29.74,SE,131,0.0,1.0,32,0.00,,,0.00,WeatherCatV1.14B232,2013-05-26 02:55:00,
2013-05-25 21:00:00,62.3,30.5,29.74,South,173,0.0,3.0,30,0.00,,,0.00,WeatherCatV1.14B232,2013-05-26 03:00:00,
2013-05-25 21:05:00,61.8,32.4,29.74,East,81,0.0,0.0,33,0.00,,,0.00,WeatherCatV1.14B232,2013-05-26 03:05:00,
2013-05-25 21:10:00,61.4,31.3,29.74,SSE,153,0.0,1.0,32,0.00,,,0.00,WeatherCatV1.14B232,2013-05-26 03:10:00,
2013-05-25 21:15:00,60.7,32.2,29.75,WNW,293,0.0,1.0,34,0.00,,,0.00,WeatherCatV1.14B232,2013-05-26 03:15:00,
2013-05-25 21:20:00,60.2,31.0,29.75,East,96,1.0,1.0,33,0.00,,,0.00,WeatherCatV1.14B232,2013-05-26 03:20:00,
2013-05-25 21:25:00,60.2,31.7,29.75,East,86,0.0,1.0,34,0.00,,,0.00,WeatherCatV1.14B232,2013-05-26 03:25:00,
2013-05-25 21:30:00,59.7,34.1,29.75,East,86,0.0,0.0,38,0.00,,,0.00,WeatherCatV1.14B232,2013-05-26 03:30:00,
2013-05-25 21:35:00,59.1,32.2,29.76,East,96,1.0,1.0,36,0.00,,,0.00,WeatherCatV1.14B232,2013-05-26 03:35:00,
2013-05-25 21:40:00,59.1,30.8,29.76,SSW,200,0.0,1.0,34,0.00,,,0.00,WeatherCatV1.14B232,2013-05-26 03:40:00,
2013-05-25 21:45:00,58.4,31.6,29.76,SW,214,0.0,1.0,36,0.00,,,0.00,WeatherCatV1.14B232,2013-05-26 03:45:00,
2013-05-25 21:50:00,58.0,31.2,29.76,SSW,211,0.0,0.0,36,0.00,,,0.00,WeatherCatV1.14B232,2013-05-26 03:50:00,
2013-05-25 21:55:00,57.7,30.2,29.76,SSE,160,0.0,1.0,35,0.00,,,0.00,WeatherCatV1.14B232,2013-05-26 03:55:00,
2013-05-25 22:00:00,57.5,29.4,29.77,SW,221,1.0,2.0,34,0.00,,,0.00,WeatherCatV1.14B232,2013-05-26 04:00:00,
2013-05-25 22:01:00,57.5,29.4,29.77,SSW,200,0.0,1.0,34,0.00,,,0.00,WeatherCatV1.14B232,2013-05-26 04:01:00,
2013-05-25 22:06:00,57.3,29.9,29.77,SSE,158,1.0,2.0,35,0.00,,,0.00,WeatherCatV1.14B232,2013-05-26 04:06:00,
2013-05-25 22:11:00,57.3,32.6,29.77,ESE,109,0.0,0.0,39,0.00,,,0.00,WeatherCatV1.14B232,2013-05-26 04:11:00,
2013-05-25 22:16:00,57.0,34.1,29.77,WSW,242,0.0,1.0,42,0.00,,,0.00,WeatherCatV1.14B232,2013-05-26 04:16:00,
2013-05-25 22:21:00,56.1,33.3,29.77,WSW,242,0.0,0.0,42,0.00,,,0.00,WeatherCatV1.14B232,2013-05-26 04:21:00,
2013-05-25 22:26:00,55.7,33.0,29.77,NE,37,0.0,1.0,42,0.00,,,0.00,WeatherCatV1.14B232,2013-05-26 04:26:00,
2013-05-25 22:31:00,55.4,35.0,29.77,WSW,256,0.0,0.0,46,0.00,,,0.00,WeatherCatV1.14B232,2013-05-26 04:31:00,
2013-05-25 22:36:00,55.1,35.2,29.77,WSW,256,0.0,0.0,47,0.00,,,0.00,WeatherCatV1.14B232,2013-05-26 04:36:00,
2013-05-25 22:41:00,55.0,34.6,29.77,WSW,256,0.0,0.0,46,0.00,,,0.00,WeatherCatV1.14B232,2013-05-26 04:41:00,
2013-05-25 22:46:00,54.7,36.9,29.77,WSW,256,0.0,0.0,51,0.00,,,0.00,WeatherCatV1.14B232,2013-05-26 04:46:00,
2013-05-25 22:51:00,54.4,34.1,29.77,WSW,256,0.0,0.0,46,0.00,,,0.00,WeatherCatV1.14B232,2013-05-26 04:51:00,
2013-05-25 22:56:00,54.1,35.4,29.77,SSE,153,0.0,0.0,49,0.00,,,0.00,WeatherCatV1.14B232,2013-05-26 04:56:00,
2013-05-25 23:01:00,53.8,34.6,29.77,SSE,153,0.0,0.0,48,0.00,,,0.00,WeatherCatV1.14B232,2013-05-26 05:01:00,
2013-05-25 23:06:00,53.6,34.4,29.77,SSE,153,0.0,0.0,48,0.00,,,0.00,WeatherCatV1.14B232,2013-05-26 05:06:00,
2013-05-25 23:11:00,53.8,30.7,29.77,NW,326,1.0,2.0,41,0.00,,,0.00,WeatherCatV1.14B232,2013-05-26 05:11:00,
2013-05-25 23:16:00,54.6,30.8,29.77,NW,318,0.0,0.0,40,0.00,,,0.00,WeatherCatV1.14B232,2013-05-26 05:16:00,
2013-05-25 23:21:00,54.5,36.2,29.77,NW,318,0.0,0.0,50,0.00,,,0.00,WeatherCatV1.14B232,2013-05-26 05:21:00,
2013-05-25 23:26:00,53.8,35.1,29.77,NW,318,0.0,0.0,49,0.00,,,0.00,WeatherCatV1.14B232,2013-05-26 05:26:00,
2013-05-25 23:31:00,52.8,35.7,29.77,NW,310,0.0,0.0,52,0.00,,,0.00,WeatherCatV1.14B232,2013-05-26 05:31:00,
2013-05-25 23:36:00,52.1,36.4,29.77,NW,311,0.0,0.0,55,0.00,,,0.00,WeatherCatV1.14B232,2013-05-26 05:36:00,
2013-05-25 23:41:00,51.6,37.3,29.77,South,169,2.0,2.0,58,0.00,,,0.00,WeatherCatV1.14B232,2013-05-26 05:41:00,
2013-05-25 23:46:00,50.8,35.2,29.78,South,178,0.0,1.0,55,0.00,,,0.00,WeatherCatV1.14B232,2013-05-26 05:46:00,
2013-05-25 23:51:00,50.4,34.4,29.78,South,173,0.0,0.0,54,0.00,,,0.00,WeatherCatV1.14B232,2013-05-26 05:51:00,
2013-05-25 23:56:00,50.1,34.1,29.77,South,173,0.0,0.0,54,0.00,,,0.00,WeatherCatV1.14B232,2013-05-26 05:56:00,